Time;durP1;ratioP1;P1;durP2;ratioP2;P2;SDS_P1;SDS_P2;PMS_P1;PMS_P2;Temp;Humidity;BMP_temperature;BMP_pressure;BME280_temperature;BME280_humidity;BME280_pressure;Samples;Min_cycle;Max_cycle;Signal;HPM_P1;HPM_P2
2023/09/06 00:00:40;;;;;;;0.20;0.20;;;;;;;16.43;61.16;99876.97;5067820;28;20511;-73
2023/09/06 00:03:06;;;;;;;0.20;0.20;;;;;;;16.40;60.91;99875.66;5068178;28;20049;-74
2023/09/06 00:05:33;;;;;;;0.20;0.20;;;;;;;16.38;61.18;99863.28;5067926;28;20049;-72
2023/09/06 00:08:05;;;;;;;0.20;0.20;;;;;;;16.35;61.43;99864.75;5068854;28;20050;-70
2023/09/06 00:10:31;;;;;;;0.20;0.20;;;;;;;16.26;61.94;99863.84;5067943;28;20060;-71
2023/09/06 00:12:57;;;;;;;0.20;0.20;;;;;;;16.25;62.34;99865.81;5066835;28;20044;-70
2023/09/06 00:15:24;;;;;;;0.20;0.20;;;;;;;16.18;62.62;99859.88;5066421;28;20053;-70
2023/09/06 00:17:50;;;;;;;0.10;0.10;;;;;;;16.13;63.00;99868.28;5047702;28;20048;-70
2023/09/06 00:20:20;;;;;;;0.20;0.20;;;;;;;16.06;63.36;99860.44;5064264;28;20098;-71
2023/09/06 00:22:54;;;;;;;0.20;0.20;;;;;;;16.03;63.39;99855.53;5068136;28;20056;-72
2023/09/06 00:25:23;;;;;;;0.20;0.20;;;;;;;15.95;63.60;99857.09;5049639;28;20051;-74
2023/09/06 00:27:52;;;;;;;0.10;0.10;;;;;;;15.92;63.97;99860.47;5065238;28;20541;-74
2023/09/06 00:30:19;;;;;;;0.20;0.20;;;;;;;15.87;64.20;99857.78;5049921;28;20052;-71
2023/09/06 00:32:46;;;;;;;0.13;0.13;;;;;;;15.82;64.51;99858.69;5065483;28;20471;-72
2023/09/06 00:35:12;;;;;;;0.20;0.20;;;;;;;15.74;64.99;99849.22;5065906;28;20586;-71
2023/09/06 00:37:42;;;;;;;0.10;0.10;;;;;;;15.67;65.85;99853.50;5031868;28;20044;-71
2023/09/06 00:40:21;;;;;;;0.20;0.20;;;;;;;15.59;66.43;99853.13;5049049;28;20187;-73
2023/09/06 00:42:51;;;;;;;0.10;0.10;;;;;;;15.53;66.38;99848.03;5062132;28;20048;-71
2023/09/06 00:45:26;;;;;;;0.10;0.10;;;;;;;15.47;66.42;99844.56;5031908;28;20052;-74
2023/09/06 00:47:55;;;;;;;0.10;0.10;;;;;;;15.44;66.54;99845.16;5065732;28;20052;-74
2023/09/06 00:50:22;;;;;;;0.10;0.10;;;;;;;15.36;66.82;99837.59;5064769;28;20548;-74
2023/09/06 00:52:50;;;;;;;0.20;0.20;;;;;;;15.31;67.33;99841.31;5047561;28;20044;-72
2023/09/06 00:55:18;;;;;;;0.10;0.10;;;;;;;15.19;67.19;99830.78;5064315;28;20110;-75
2023/09/06 00:57:44;;;;;;;0.10;0.10;;;;;;;15.17;67.82;99833.00;5063551;28;20049;-74
2023/09/06 01:00:19;;;;;;;0.10;0.10;;;;;;;15.16;67.69;99840.47;5046480;28;20091;-74
2023/09/06 01:02:47;;;;;;;0.10;0.10;;;;;;;15.08;67.78;99824.66;5062484;28;20322;-74
2023/09/06 01:05:14;;;;;;;0.20;0.20;;;;;;;15.12;67.89;99833.94;5059437;28;20081;-75
2023/09/06 01:07:45;;;;;;;0.10;0.10;;;;;;;15.05;68.21;99821.69;5060717;28;20045;-74
2023/09/06 01:10:12;;;;;;;0.10;0.10;;;;;;;15.03;68.51;99831.06;5064143;28;20063;-76
2023/09/06 01:12:38;;;;;;;0.20;0.20;;;;;;;14.95;69.05;99822.69;5062446;28;20048;-73
2023/09/06 01:15:05;;;;;;;0.10;0.10;;;;;;;14.90;69.25;99807.09;5059325;28;20103;-73
2023/09/06 01:17:37;;;;;;;0.10;0.10;;;;;;;14.82;69.49;99794.03;5059543;28;20139;-76
2023/09/06 01:20:15;;;;;;;0.17;0.17;;;;;;;14.83;69.32;99804.75;5065019;28;20072;-75
2023/09/06 01:22:48;;;;;;;0.17;0.17;;;;;;;14.83;69.85;99799.25;5065081;28;20530;-75
2023/09/06 01:25:16;;;;;;;0.13;0.13;;;;;;;14.82;69.65;99794.03;5063482;28;20530;-75
2023/09/06 01:27:44;;;;;;;0.10;0.10;;;;;;;14.81;69.62;99795.97;5064911;28;20072;-75
2023/09/06 01:30:11;;;;;;;0.20;0.20;;;;;;;14.79;69.98;99792.69;5064122;28;20442;-75
2023/09/06 01:32:39;;;;;;;0.10;0.10;;;;;;;14.78;70.16;99784.75;5066999;28;20057;-73
2023/09/06 01:35:09;;;;;;;0.20;0.20;;;;;;;14.80;69.82;99785.28;5068622;28;20048;-73
2023/09/06 01:37:37;;;;;;;0.20;0.20;;;;;;;14.78;70.26;99777.31;5065992;28;20306;-71
2023/09/06 01:40:17;;;;;;;0.10;0.10;;;;;;;14.74;69.93;99784.53;5033173;28;20126;-71
2023/09/06 01:42:47;;;;;;;0.10;0.10;;;;;;;14.68;70.87;99775.53;5032542;28;20044;-73
2023/09/06 01:45:17;;;;;;;0.15;0.15;;;;;;;14.65;70.35;99778.06;5063608;28;20215;-71
2023/09/06 01:47:44;;;;;;;0.10;0.10;;;;;;;14.59;70.54;99769.06;5062705;28;20076;-74
2023/09/06 01:50:11;;;;;;;0.13;0.13;;;;;;;14.58;70.92;99772.94;5063034;28;20151;-74
2023/09/06 01:52:40;;;;;;;0.10;0.10;;;;;;;14.55;70.95;99755.13;5063977;28;20052;-73
2023/09/06 01:55:08;;;;;;;0.10;0.10;;;;;;;14.57;71.22;99769.41;5066892;28;20048;-73
2023/09/06 01:57:35;;;;;;;0.10;0.10;;;;;;;14.55;70.77;99760.63;5063712;28;20040;-71
2023/09/06 02:02:46;;;;;;;0.10;0.10;;;;;;;14.70;70.52;99764.22;5059647;28;20121;-72
2023/09/06 02:05:12;;;;;;;0.10;0.10;;;;;;;14.76;70.68;99756.72;5062833;28;20515;-71
2023/09/06 02:07:39;;;;;;;0.10;0.10;;;;;;;14.75;70.15;99736.63;5045743;28;20139;-71
2023/09/06 02:10:07;;;;;;;0.20;0.20;;;;;;;14.98;69.44;99758.75;5029790;28;20044;-73
2023/09/06 02:12:34;;;;;;;0.10;0.10;;;;;;;15.04;69.57;99754.81;5062025;28;20055;-73
2023/09/06 02:15:04;;;;;;;0.20;0.20;;;;;;;15.06;68.99;99749.81;5061577;28;20059;-72
2023/09/06 02:17:32;;;;;;;0.15;0.15;;;;;;;15.09;68.86;99743.69;5044206;28;20048;-72
2023/09/06 02:20:12;;;;;;;;;;;;;;;15.14;68.65;99743.59;5045621;28;20044;-72
2023/09/06 02:22:39;;;;;;;0.10;0.10;;;;;;;15.14;68.48;99738.09;5056239;28;20307;-72
2023/09/06 02:25:07;;;;;;;0.10;0.10;;;;;;;15.20;68.43;99746.22;5060404;28;20052;-73
2023/09/06 02:27:33;;;;;;;0.10;0.10;;;;;;;15.20;68.41;99740.72;5044892;28;20048;-74
2023/09/06 02:30:03;;;;;;;0.20;0.20;;;;;;;15.20;68.37;99730.50;5059910;28;20044;-74
2023/09/06 02:32:32;;;;;;;0.20;0.20;;;;;;;15.21;68.39;99732.13;5046628;28;20090;-75
2023/09/06 02:34:58;;;;;;;0.15;0.15;;;;;;;15.22;68.34;99724.69;5062345;28;20044;-74
2023/09/06 02:37:25;;;;;;;0.10;0.10;;;;;;;15.29;68.29;99733.34;5064180;28;20059;-74
2023/09/06 02:39:54;;;;;;;0.10;0.10;;;;;;;15.28;68.07;99731.72;5062701;28;20582;-75
2023/09/06 02:42:20;;;;;;;0.10;0.10;;;;;;;15.24;68.31;99725.22;5064507;28;20056;-74
2023/09/06 02:44:47;;;;;;;0.10;0.10;;;;;;;15.21;68.53;99728.59;5062763;28;20056;-75
2023/09/06 02:47:15;;;;;;;0.10;0.10;;;;;;;15.21;68.69;99728.59;5044502;28;20588;-76
2023/09/06 02:49:42;;;;;;;0.10;0.10;;;;;;;15.25;67.97;99730.41;5064488;28;20048;-75
2023/09/06 02:52:20;;;;;;;0.10;0.10;;;;;;;15.28;68.39;99732.56;5065462;28;20063;-74
2023/09/06 02:54:47;;;;;;;0.20;0.20;;;;;;;15.21;68.39;99731.34;5046458;28;20051;-74
2023/09/06 02:57:17;;;;;;;0.20;0.20;;;;;;;15.26;68.23;99734.81;5048082;28;20596;-74
2023/09/06 02:59:43;;;;;;;0.10;0.10;;;;;;;15.29;68.11;99733.34;5047411;28;20118;-75
2023/09/06 03:02:12;;;;;;;0.20;0.20;;;;;;;15.32;67.77;99732.75;5061562;28;20427;-74
2023/09/06 03:04:41;;;;;;;0.10;0.10;;;;;;;15.32;67.74;99727.25;5061497;28;20051;-72
2023/09/06 03:07:15;;;;;;;0.17;0.17;;;;;;;15.37;67.78;99723.53;5061910;28;20057;-72
2023/09/06 03:09:44;;;;;;;0.20;0.20;;;;;;;15.39;67.52;99719.38;5060615;28;20136;-74
2023/09/06 03:12:14;;;;;;;0.20;0.20;;;;;;;15.46;67.48;99718.94;5062019;28;20452;-76
2023/09/06 03:14:44;;;;;;;0.20;0.20;;;;;;;15.49;67.27;99710.06;5044460;28;20040;-76
2023/09/06 03:17:13;;;;;;;0.20;0.20;;;;;;;15.51;67.44;99707.00;5061920;28;20214;-72
2023/09/06 03:19:43;;;;;;;0.20;0.20;;;;;;;15.42;67.01;99682.13;5044748;28;20518;-75
2023/09/06 03:22:09;;;;;;;0.20;0.20;;;;;;;15.53;67.03;99696.47;5066592;28;20515;-75
2023/09/06 03:24:36;;;;;;;0.20;0.20;;;;;;;15.49;66.64;99693.53;5061935;28;20139;-75
2023/09/06 03:27:07;;;;;;;0.10;0.10;;;;;;;15.48;67.25;99691.09;5064319;28;20434;-75
2023/09/06 03:29:37;;;;;;;0.20;0.20;;;;;;;15.44;66.82;99708.22;5067069;28;20135;-75
2023/09/06 03:32:10;;;;;;;0.20;0.20;;;;;;;15.45;67.46;99695.28;5049982;28;20055;-76
2023/09/06 03:34:41;;;;;;;0.20;0.20;;;;;;;15.48;67.11;99691.91;5050217;28;20059;-74
2023/09/06 03:37:10;;;;;;;0.20;0.20;;;;;;;15.52;66.99;99679.13;5068167;28;20150;-75
2023/09/06 03:39:41;;;;;;;0.20;0.20;;;;;;;15.68;66.58;99693.38;5052504;28;20055;-75
2023/09/06 03:42:08;;;;;;;0.20;0.20;;;;;;;15.76;65.99;99677.19;5030389;28;20610;-73
2023/09/06 03:44:35;;;;;;;0.20;0.20;;;;;;;15.86;65.78;99688.00;5065239;28;20419;-75
2023/09/06 03:47:13;;;;;;;0.20;0.20;;;;;;;15.90;65.40;99677.19;5065820;28;20054;-75
2023/09/06 03:49:41;;;;;;;0.20;0.20;;;;;;;15.98;65.53;99677.25;5048627;28;20509;-75
2023/09/06 03:52:07;;;;;;;0.20;0.20;;;;;;;15.91;65.05;99681.56;5050604;28;20427;-75
2023/09/06 03:54:36;;;;;;;;;;;;;;;15.93;65.43;99668.28;5065185;28;20048;-75
2023/09/06 03:57:03;;;;;;;0.20;0.20;;;;;;;15.94;64.53;99653.38;5027857;28;19976;-75
2023/09/06 03:59:35;;;;;;;;;;;;;;;15.98;65.24;99657.13;5066698;28;20055;-72
2023/09/06 04:02:07;;;;;;;0.20;0.20;;;;;;;15.93;64.50;99651.75;5046608;28;19956;-73
2023/09/06 04:04:34;;;;;;;0.13;0.13;;;;;;;15.94;64.70;99648.69;5059881;28;20159;-73
2023/09/06 04:07:02;;;;;;;0.20;0.20;;;;;;;15.98;64.87;99643.31;5043941;28;20518;-72
2023/09/06 04:09:37;;;;;;;0.17;0.17;;;;;;;15.96;64.86;99642.84;5066235;28;20384;-72
2023/09/06 04:12:06;;;;;;;0.20;0.20;;;;;;;16.01;64.30;99649.03;5048440;28;20131;-77
2023/09/06 04:14:35;;;;;;;0.20;0.20;;;;;;;16.01;64.78;99654.56;5066220;28;20056;-75
2023/09/06 04:17:06;;;;;;;0.20;0.20;;;;;;;15.88;64.42;99636.94;5047212;28;20044;-75
2023/09/06 04:19:34;;;;;;;0.20;0.20;;;;;;;15.87;65.19;99645.50;5057845;28;20041;-76
2023/09/06 04:22:01;;;;;;;0.20;0.20;;;;;;;15.79;65.25;99643.53;5045022;28;20071;-74
2023/09/06 04:24:35;;;;;;;0.20;0.20;;;;;;;15.77;65.92;99632.00;5066052;28;20041;-73
2023/09/06 04:27:06;;;;;;;0.20;0.20;;;;;;;15.73;65.81;99626.28;5034268;28;20045;-72
2023/09/06 04:29:33;;;;;;;0.20;0.20;;;;;;;15.81;65.84;99631.03;5064241;28;20511;-72
2023/09/06 04:32:01;;;;;;;0.20;0.20;;;;;;;16.07;65.04;99629.59;5042235;28;20075;-72
2023/09/06 04:34:27;;;;;;;;;;;;;;;16.22;64.11;99629.19;5066113;28;20084;-72
2023/09/06 04:36:54;;;;;;;0.20;0.20;;;;;;;16.19;64.03;99621.56;5047843;28;19924;-72
2023/09/06 04:39:23;;;;;;;0.20;0.20;;;;;;;16.20;64.37;99630.66;5045894;28;20079;-72
2023/09/06 04:41:49;;;;;;;0.20;0.20;;;;;;;16.14;64.55;99627.22;5043445;28;20147;-72
2023/09/06 04:44:24;;;;;;;0.20;0.20;;;;;;;16.15;64.46;99637.09;4707811;28;10000114;-72
2023/09/06 04:46:51;;;;;;;0.20;0.20;;;;;;;16.13;64.17;99629.13;5031566;28;20311;-73
2023/09/06 04:49:18;;;;;;;0.20;0.20;;;;;;;16.14;64.43;99614.22;5054672;28;20045;-73
2023/09/06 04:51:44;;;;;;;0.20;0.20;;;;;;;16.25;64.87;99625.00;5049191;28;20056;-72
2023/09/06 04:54:10;;;;;;;0.20;0.20;;;;;;;16.38;64.28;99623.25;5060795;28;20036;-73
2023/09/06 04:56:37;;;;;;;0.20;0.20;;;;;;;16.53;63.94;99622.81;5061885;28;20503;-75
2023/09/06 04:59:04;;;;;;;0.20;0.20;;;;;;;16.72;63.21;99621.75;5046170;28;20576;-74
2023/09/06 05:01:32;;;;;;;0.23;0.23;;;;;;;16.73;62.98;99623.38;5081336;28;20054;-74
2023/09/06 05:03:59;;;;;;;0.20;0.20;;;;;;;16.61;63.00;99618.47;5073967;28;20098;-73
2023/09/06 05:06:27;;;;;;;0.20;0.20;;;;;;;16.65;63.34;99630.50;5054351;28;20077;-72
2023/09/06 05:08:53;;;;;;;0.20;0.20;;;;;;;16.68;63.91;99637.31;5069361;28;20094;-72
2023/09/06 05:11:23;;;;;;;0.20;0.20;;;;;;;16.76;63.90;99625.50;5067650;28;20128;-74
2023/09/06 05:13:52;;;;;;;0.20;0.20;;;;;;;16.87;63.07;99628.78;5053049;28;20062;-74
2023/09/06 05:16:19;;;;;;;0.20;0.20;;;;;;;16.88;63.18;99633.16;5070645;28;20139;-74
2023/09/06 05:18:49;;;;;;;0.30;0.30;;;;;;;16.71;63.83;99617.38;5069741;28;20067;-74
2023/09/06 05:21:17;;;;;;;0.20;0.20;;;;;;;16.86;64.07;99618.88;5040924;28;20263;-74
2023/09/06 05:23:43;;;;;;;0.28;0.28;;;;;;;16.89;63.54;99625.69;5054282;28;20140;-73
2023/09/06 05:26:11;;;;;;;0.20;0.20;;;;;;;16.79;63.68;99626.81;5060474;28;20052;-73
2023/09/06 05:28:43;;;;;;;0.20;0.20;;;;;;;16.69;64.90;99620.44;5045147;28;20040;-74
2023/09/06 05:31:09;;;;;;;0.30;0.30;;;;;;;16.79;64.29;99618.53;5051611;28;20041;-73
2023/09/06 05:33:39;;;;;;;0.30;0.30;;;;;;;16.78;64.01;99612.19;5068516;28;20049;-72
2023/09/06 05:36:08;;;;;;;0.20;0.20;;;;;;;16.63;64.58;99612.63;5061721;28;20040;-72
2023/09/06 05:38:35;;;;;;;0.20;0.20;;;;;;;16.53;65.30;99602.72;5044456;28;20594;-72
2023/09/06 05:41:06;;;;;;;0.30;0.30;;;;;;;16.65;65.26;99602.09;5058043;28;20056;-72
2023/09/06 05:43:39;;;;;;;0.30;0.30;;;;;;;16.82;64.68;99602.13;5017494;28;20091;-72
2023/09/06 05:46:07;;;;;;;0.20;0.20;;;;;;;16.96;63.93;99587.38;5017548;28;20040;-72
2023/09/06 05:48:34;;;;;;;0.30;0.30;;;;;;;17.03;64.05;99578.63;5055979;28;20624;-72
2023/09/06 05:51:01;;;;;;;0.30;0.30;;;;;;;17.09;63.51;99577.31;5045333;28;20167;-72
2023/09/06 05:53:31;;;;;;;0.20;0.20;;;;;;;17.21;63.10;99580.25;5066566;28;20059;-72
2023/09/06 05:55:58;;;;;;;0.30;0.30;;;;;;;17.28;63.25;99586.13;5046527;28;20054;-70
2023/09/06 05:58:25;;;;;;;0.30;0.30;;;;;;;17.17;63.42;99561.91;5046760;28;20155;-72
2023/09/06 06:00:53;;;;;;;0.30;0.30;;;;;;;17.38;63.49;99581.38;5061492;28;20037;-72
2023/09/06 06:03:20;;;;;;;0.30;0.30;;;;;;;17.48;63.03;99571.94;5049278;28;20504;-72
2023/09/06 06:05:48;;;;;;;0.30;0.30;;;;;;;17.47;63.23;99565.63;5062624;28;20048;-72
2023/09/06 06:08:14;;;;;;;0.30;0.30;;;;;;;17.47;62.86;99545.47;5045516;28;20036;-74
2023/09/06 06:10:42;;;;;;;0.30;0.30;;;;;;;17.53;63.21;99556.00;5065997;28;20143;-72
2023/09/06 06:13:11;;;;;;;0.30;0.30;;;;;;;17.72;63.31;99554.88;5031926;28;20144;-72
2023/09/06 06:15:37;;;;;;;0.30;0.30;;;;;;;18.00;62.66;99565.50;5064894;28;20486;-72
2023/09/06 06:18:05;;;;;;;0.30;0.30;;;;;;;18.13;61.96;99560.94;5065316;28;20072;-72
2023/09/06 06:20:31;;;;;;;;;;;;;;;18.28;61.74;99565.91;5047011;28;20627;-72
2023/09/06 06:22:58;;;;;;;0.38;0.38;;;;;;;18.43;61.36;99556.22;5066415;28;19928;-74
2023/09/06 06:25:25;;;;;;;0.30;0.30;;;;;;;18.60;60.94;99565.56;5048563;28;20056;-74
2023/09/06 06:27:53;;;;;;;0.30;0.30;;;;;;;18.66;60.55;99557.88;5066186;28;20515;-74
2023/09/06 06:30:19;;;;;;;0.30;0.30;;;;;;;18.77;60.24;99550.81;5063438;28;20163;-74
2023/09/06 06:32:45;;;;;;;0.30;0.30;;;;;;;19.03;59.58;99562.88;5049644;28;20048;-74
2023/09/06 06:35:12;;;;;;;0.38;0.38;;;;;;;19.16;59.83;99558.22;5048941;28;20305;-73
2023/09/06 06:37:38;;;;;;;0.30;0.30;;;;;;;19.37;59.17;99556.25;5066081;28;20113;-74
2023/09/06 06:40:06;;;;;;;0.30;0.30;;;;;;;19.65;58.31;99554.84;5049232;28;20045;-74
2023/09/06 06:42:39;;;;;;;0.30;0.30;;;;;;;19.52;58.13;99552.00;5065825;28;20078;-74
2023/09/06 06:45:10;;;;;;;0.30;0.30;;;;;;;19.30;59.22;99549.63;5060877;28;20044;-74
2023/09/06 06:47:37;;;;;;;0.30;0.30;;;;;;;19.06;59.93;99546.41;5056408;28;20121;-74
2023/09/06 06:50:06;;;;;;;0.30;0.30;;;;;;;19.11;60.34;99543.41;5054250;28;20442;-74
2023/09/06 06:52:35;;;;;;;0.20;0.20;;;;;;;19.05;60.58;99536.47;5061141;28;20060;-73
2023/09/06 06:55:01;;;;;;;0.40;0.40;;;;;;;19.11;60.90;99543.41;5061191;28;20098;-74
2023/09/06 06:57:28;;;;;;;0.70;0.40;;;;;;;19.41;59.86;99542.50;5063439;28;20880;-74
2023/09/06 06:59:56;;;;;;;0.40;0.40;;;;;;;19.58;59.24;99546.25;5046723;28;20455;-77
2023/09/06 07:02:24;;;;;;;0.30;0.30;;;;;;;19.73;58.82;99540.03;5069389;28;20055;-72
2023/09/06 07:04:50;;;;;;;0.30;0.30;;;;;;;20.01;57.79;99541.41;5073349;28;20525;-72
2023/09/06 07:07:17;;;;;;;0.30;0.30;;;;;;;20.13;57.32;99535.84;5070979;28;20041;-73
2023/09/06 07:09:44;;;;;;;0.30;0.30;;;;;;;20.25;57.24;99532.28;5062023;28;20294;-74
2023/09/06 07:12:10;;;;;;;0.30;0.30;;;;;;;20.49;56.51;99531.47;5056457;28;20051;-73
2023/09/06 07:14:37;;;;;;;0.40;0.40;;;;;;;20.83;55.49;99534.09;5060892;28;20048;-73
2023/09/06 07:17:04;;;;;;;0.30;0.30;;;;;;;21.07;54.50;99529.63;5069735;28;20657;-72
2023/09/06 07:19:33;;;;;;;0.30;0.30;;;;;;;21.07;54.76;99521.28;5073118;28;20129;-72
2023/09/06 07:22:00;;;;;;;0.40;0.40;;;;;;;20.98;55.30;99532.56;5055244;28;20293;-74
2023/09/06 07:24:26;;;;;;;0.30;0.30;;;;;;;21.16;54.94;99523.94;5070376;28;20044;-72
2023/09/06 07:26:53;;;;;;;0.30;0.30;;;;;;;21.07;54.48;99511.00;5068883;28;20036;-71
2023/09/06 07:29:19;;;;;;;0.32;0.32;;;;;;;21.08;55.02;99526.50;5075435;28;20083;-73
2023/09/06 07:31:46;;;;;;;0.30;0.30;;;;;;;20.82;55.68;99511.06;5074831;28;20041;-73
2023/09/06 07:34:12;;;;;;;0.20;0.20;;;;;;;20.67;56.26;99523.66;5067735;28;20049;-74
2023/09/06 07:36:40;;;;;;;0.30;0.30;;;;;;;21.08;54.86;99520.13;5064969;28;20044;-73
2023/09/06 07:39:08;;;;;;;0.40;0.40;;;;;;;21.51;53.73;99515.78;5045886;28;20054;-73
2023/09/06 07:41:34;;;;;;;;;;;;;;;21.74;53.56;99515.19;5065902;28;20041;-72
2023/09/06 07:44:00;;;;;;;0.40;0.40;;;;;;;22.22;52.03;99506.84;5046602;28;19985;-74
2023/09/06 07:46:29;;;;;;;0.30;0.30;;;;;;;22.33;51.64;99511.88;5064816;28;20055;-73
2023/09/06 07:48:56;;;;;;;0.50;0.50;;;;;;;21.77;52.81;99503.34;5063199;28;20056;-74
2023/09/06 07:51:23;;;;;;;0.40;0.40;;;;;;;21.76;53.12;99501.72;5065731;28;20063;-75
2023/09/06 07:53:51;;;;;;;0.40;0.40;;;;;;;21.82;53.13;99507.84;5046533;28;20069;-74
2023/09/06 07:56:19;;;;;;;0.30;0.30;;;;;;;21.57;53.61;99507.97;5048962;28;20083;-73
2023/09/06 07:58:45;;;;;;;;;;;;;;;21.35;54.82;99507.38;5076460;28;20045;-74
2023/09/06 08:01:12;;;;;;;0.77;0.30;;;;;;;21.09;55.45;99518.97;5075839;28;20395;-73
2023/09/06 08:03:38;;;;;;;0.55;0.40;;;;;;;20.82;56.28;99508.28;5068116;28;20067;-73
2023/09/06 08:06:04;;;;;;;0.32;0.32;;;;;;;20.66;56.37;99504.59;5069462;28;20475;-74
2023/09/06 08:08:31;;;;;;;0.40;0.40;;;;;;;20.45;57.50;99521.41;5073656;28;20052;-74
2023/09/06 08:10:59;;;;;;;0.30;0.30;;;;;;;20.14;57.90;99509.75;5074616;28;20571;-74
2023/09/06 08:13:25;;;;;;;0.20;0.20;;;;;;;20.00;58.76;99504.53;5076636;28;20082;-73
2023/09/06 08:15:52;;;;;;;0.30;0.30;;;;;;;19.98;59.30;99507.66;5074666;28;20075;-74
2023/09/06 08:18:19;;;;;;;0.30;0.30;;;;;;;20.05;59.07;99509.84;5075529;28;20040;-74
2023/09/06 08:20:46;;;;;;;0.40;0.40;;;;;;;20.46;58.70;99514.69;5072515;28;20052;-72
2023/09/06 08:23:13;;;;;;;0.30;0.30;;;;;;;20.85;56.49;99514.31;5071058;28;20044;-73
2023/09/06 08:25:40;;;;;;;1.25;0.50;;;;;;;20.85;56.33;99512.34;5076662;28;20044;-74
2023/09/06 08:28:08;;;;;;;0.57;0.57;;;;;;;21.03;55.22;99520.41;5062706;28;20052;-73
2023/09/06 08:30:34;;;;;;;0.52;0.50;;;;;;;21.81;52.79;99517.34;5070333;28;20110;-73
2023/09/06 08:33:01;;;;;;;0.60;0.60;;;;;;;22.61;50.41;99514.53;5061352;28;20557;-74
2023/09/06 08:35:27;;;;;;;0.30;0.30;;;;;;;23.08;49.44;99515.50;5061034;28;20045;-74
2023/09/06 08:37:54;;;;;;;0.30;0.30;;;;;;;22.38;50.08;99529.09;5066975;28;20053;-72
2023/09/06 08:40:21;;;;;;;0.50;0.50;;;;;;;21.81;52.32;99514.56;5052969;28;20055;-74
2023/09/06 08:42:49;;;;;;;0.50;0.50;;;;;;;22.59;49.76;99507.69;5046252;28;20327;-73
2023/09/06 08:45:24;;;;;;;0.50;0.50;;;;;;;23.51;47.18;99507.22;5066087;28;20051;-73
2023/09/06 08:47:50;;;;;;;0.50;0.50;;;;;;;23.89;46.20;99512.25;5065663;28;20063;-73
2023/09/06 08:50:17;;;;;;;0.40;0.40;;;;;;;23.10;48.21;99529.09;5061686;28;20064;-74
2023/09/06 08:52:44;;;;;;;0.20;0.20;;;;;;;22.05;50.10;99515.56;5066169;28;20090;-74
2023/09/06 08:55:11;;;;;;;0.30;0.30;;;;;;;21.29;51.69;99508.00;5063579;28;20048;-73
2023/09/06 08:57:38;;;;;;;0.30;0.30;;;;;;;20.83;53.26;99521.03;5040626;28;20472;-74
2023/09/06 09:00:09;;;;;;;0.20;0.20;;;;;;;20.38;54.84;99508.94;5062153;28;20404;-73
2023/09/06 09:02:37;;;;;;;0.30;0.30;;;;;;;20.20;55.77;99516.69;5059170;28;20136;-73
2023/09/06 09:05:05;;;;;;;0.30;0.30;;;;;;;20.15;56.19;99505.00;5071130;28;20122;-73
2023/09/06 09:07:32;;;;;;;0.30;0.30;;;;;;;20.15;56.06;99524.41;5069182;28;20151;-73
2023/09/06 09:10:01;;;;;;;0.30;0.30;;;;;;;20.17;54.88;99542.34;5070424;28;20063;-74
2023/09/06 09:12:31;;;;;;;0.40;0.40;;;;;;;20.28;54.13;99531.59;5069634;28;20052;-73
2023/09/06 09:15:00;;;;;;;0.40;0.40;;;;;;;20.80;52.77;99523.66;5069076;28;20048;-72
2023/09/06 09:17:27;;;;;;;0.38;0.30;;;;;;;21.29;50.43;99535.78;5068749;28;20093;-74
2023/09/06 09:19:56;;;;;;;0.50;0.50;;;;;;;21.01;51.71;99534.63;5065660;28;20139;-74
2023/09/06 09:22:24;;;;;;;0.63;0.40;;;;;;;20.33;53.03;99545.22;5055064;28;20490;-73
2023/09/06 09:24:50;;;;;;;0.50;0.40;;;;;;;19.92;53.61;99535.97;5059561;28;20072;-73
2023/09/06 09:27:18;;;;;;;0.30;0.30;;;;;;;19.77;53.81;99518.00;5061896;28;20048;-73
2023/09/06 09:29:47;;;;;;;0.40;0.40;;;;;;;19.89;53.20;99539.38;5062892;28;20091;-74
2023/09/06 09:32:14;;;;;;;0.40;0.40;;;;;;;20.22;52.90;99542.13;5058354;28;20405;-74
2023/09/06 09:34:41;;;;;;;0.30;0.30;;;;;;;20.33;52.88;99550.78;5058203;28;20044;-73
2023/09/06 09:37:09;;;;;;;0.30;0.30;;;;;;;20.16;53.23;99534.38;5058523;28;20048;-74
2023/09/06 09:39:37;;;;;;;0.30;0.30;;;;;;;20.03;53.38;99537.13;5058756;28;20083;-74
2023/09/06 09:42:04;;;;;;;0.30;0.30;;;;;;;20.04;53.65;99535.97;5051883;28;20040;-73
2023/09/06 09:44:31;;;;;;;0.30;0.30;;;;;;;20.08;53.72;99549.97;5060434;28;20055;-74
2023/09/06 09:47:09;;;;;;;0.30;0.30;;;;;;;19.96;53.93;99540.47;5064310;28;20048;-74
2023/09/06 09:49:36;;;;;;;0.30;0.30;;;;;;;20.07;54.35;99563.03;5064830;28;20045;-74
2023/09/06 09:52:04;;;;;;;0.30;0.30;;;;;;;20.17;54.20;99556.22;5060360;28;20118;-74
2023/09/06 09:54:37;;;;;;;0.40;0.40;;;;;;;20.45;53.86;99552.78;5052017;28;20135;-74
2023/09/06 09:57:07;;;;;;;0.57;0.57;;;;;;;20.94;52.26;99574.13;5066652;28;20041;-74
2023/09/06 09:59:36;;;;;;;0.52;0.52;;;;;;;21.30;51.02;99552.13;5067635;28;20098;-73
2023/09/06 10:02:04;;;;;;;0.70;0.70;;;;;;;22.47;48.11;99553.16;5062315;28;20527;-74
2023/09/06 10:04:42;;;;;;;0.52;0.52;;;;;;;23.11;46.00;99557.78;5058522;28;20118;-73
2023/09/06 10:07:11;;;;;;;0.40;0.40;;;;;;;23.51;44.96;99553.84;5068979;28;20064;-72
2023/09/06 10:09:42;;;;;;;0.30;0.30;;;;;;;23.19;44.66;99551.19;5067340;28;20049;-73
2023/09/06 10:12:11;;;;;;;0.20;0.20;;;;;;;22.12;47.10;99562.28;5062968;28;20048;-73
2023/09/06 10:14:41;;;;;;;0.20;0.20;;;;;;;21.29;49.55;99546.91;5063869;28;20052;-72
2023/09/06 10:17:08;;;;;;;0.20;0.20;;;;;;;20.65;51.47;99556.53;5062682;28;20051;-72
2023/09/06 10:19:35;;;;;;;0.30;0.30;;;;;;;20.10;52.94;99567.91;5063884;28;20074;-73
2023/09/06 10:22:04;;;;;;;0.20;0.20;;;;;;;19.70;54.07;99568.47;5051797;28;20041;-72
2023/09/06 10:24:34;;;;;;;0.30;0.30;;;;;;;19.53;54.94;99575.00;5041307;28;20470;-72
2023/09/06 10:27:03;;;;;;;0.20;0.20;;;;;;;19.48;54.82;99572.44;5056637;28;20471;-72
2023/09/06 10:29:31;;;;;;;0.60;0.40;;;;;;;19.56;53.13;99585.41;5065730;28;20603;-72
2023/09/06 10:32:03;;;;;;;0.30;0.30;;;;;;;19.70;51.18;99576.78;5063819;28;20523;-72
2023/09/06 10:34:33;;;;;;;0.30;0.30;;;;;;;19.62;49.95;99572.16;5041612;28;20144;-73
2023/09/06 10:37:03;;;;;;;0.40;0.40;;;;;;;19.56;49.85;99574.31;5062567;28;20044;-72
2023/09/06 10:39:30;;;;;;;0.60;0.60;;;;;;;19.91;49.37;99571.19;5046158;28;20079;-73
2023/09/06 10:42:18;;;;;;;0.70;0.70;;;;;;;22.69;42.80;99560.06;5060290;28;20116;-74
2023/09/06 10:45:13;;;;;;;0.60;0.60;;;;;;;24.77;38.43;99555.16;5051970;28;20064;-72
2023/09/06 10:47:41;;;;;;;0.50;0.50;;;;;;;24.49;38.77;99563.91;5045308;28;20049;-74
2023/09/06 10:50:14;;;;;;;0.90;0.80;;;;;;;25.32;37.43;99558.66;5030203;28;20052;-73
2023/09/06 10:52:43;;;;;;;0.80;0.80;;;;;;;26.47;35.48;99561.03;5043816;28;20052;-74
2023/09/06 10:55:14;;;;;;;0.80;0.80;;;;;;;26.93;34.88;99562.53;5051947;28;20082;-74
2023/09/06 10:58:02;;;;;;;0.80;0.80;;;;;;;27.69;34.38;99562.81;5043300;28;20537;-74
2023/09/06 11:00:30;;;;;;;1.00;1.00;;;;;;;29.08;31.84;99563.59;5046264;28;20071;-73
2023/09/06 11:03:19;;;;;;;0.40;0.40;;;;;;;29.61;29.92;99564.56;5046530;28;20048;-73
2023/09/06 11:05:52;;;;;;;0.57;0.57;;;;;;;28.14;31.86;99556.88;5053010;28;20535;-74
2023/09/06 11:08:38;;;;;;;1.00;1.00;;;;;;;28.17;32.11;99552.47;5021141;28;20047;-74
2023/09/06 11:11:07;;;;;;;1.10;1.10;;;;;;;28.90;31.06;99558.00;5041230;28;20136;-74
2023/09/06 11:13:36;;;;;;;1.10;1.10;;;;;;;29.68;29.77;99544.81;5045871;28;20084;-73
2023/09/06 11:16:03;;;;;;;0.90;0.90;;;;;;;30.04;29.08;99543.78;5061350;28;20400;-74
2023/09/06 11:18:32;;;;;;;1.30;1.20;;;;;;;29.83;29.78;99548.34;5043163;28;20143;-73
2023/09/06 11:21:01;;;;;;;1.67;1.00;;;;;;;29.78;29.09;99553.59;5056744;28;20457;-74
2023/09/06 11:23:27;;;;;;;1.30;1.20;;;;;;;29.54;29.71;99564.59;5048430;28;20045;-74
2023/09/06 11:25:58;;;;;;;1.00;1.00;;;;;;;30.54;28.13;99550.16;5047698;28;20068;-74
2023/09/06 11:28:28;;;;;;;0.80;0.80;;;;;;;30.73;26.94;99554.44;5047449;28;20044;-73
2023/09/06 11:30:58;;;;;;;1.08;1.08;;;;;;;30.03;27.97;99550.63;5061152;28;20072;-74
2023/09/06 11:33:31;;;;;;;0.30;0.30;;;;;;;27.87;29.98;99560.06;5061711;28;20067;-74
2023/09/06 11:36:03;;;;;;;1.25;1.15;;;;;;;26.13;33.54;99545.13;5058206;28;20041;-74
2023/09/06 11:38:34;;;;;;;0.40;0.40;;;;;;;26.43;32.83;99555.38;5062081;28;20052;-75
2023/09/06 11:41:04;;;;;;;0.40;0.40;;;;;;;25.30;35.13;99555.44;5060952;28;20064;-75
2023/09/06 11:43:31;;;;;;;0.40;0.40;;;;;;;24.21;36.81;99554.72;5056019;28;20052;-73